createdAt,value
2022-11-13T00:01:52.175Z,158.67
2022-11-13T00:04:38.393Z,158.87
2022-11-13T00:07:24.594Z,158.90
2022-11-13T00:10:12.586Z,158.33
2022-11-13T00:12:58.969Z,157.80
2022-11-13T00:15:45.493Z,157.47
2022-11-13T00:18:34.617Z,157.43
2022-11-13T00:21:23.370Z,158.00
2022-11-13T00:24:09.644Z,158.77
2022-11-13T00:26:57.182Z,158.47
2022-11-13T00:29:43.355Z,158.50
2022-11-13T00:32:29.791Z,157.83
2022-11-13T00:35:16.281Z,159.07
2022-11-13T00:38:02.696Z,158.63
2022-11-13T00:40:48.894Z,159.40
2022-11-13T00:43:36.813Z,157.97
2022-11-13T00:46:23.447Z,158.37
2022-11-13T00:49:09.783Z,158.30
2022-11-13T00:51:55.970Z,158.07
2022-11-13T00:54:42.553Z,158.27
2022-11-13T00:57:28.806Z,158.17
2022-11-13T01:00:17.675Z,158.03
2022-11-13T01:03:04.441Z,157.53
2022-11-13T01:05:50.568Z,157.27
2022-11-13T01:08:37.023Z,158.50
2022-11-13T01:11:26.540Z,157.97
2022-11-13T01:14:13.190Z,157.30
2022-11-13T01:17:01.743Z,158.63
2022-11-13T01:19:48.408Z,158.50
2022-11-13T01:22:34.973Z,159.03
2022-11-13T01:25:21.550Z,158.33
2022-11-13T01:28:07.983Z,158.43
2022-11-13T01:30:54.431Z,157.67
2022-11-13T01:33:42.083Z,158.27
2022-11-13T01:36:29.582Z,158.60
2022-11-13T01:39:15.821Z,158.67
2022-11-13T01:42:02.635Z,157.93
2022-11-13T01:44:53.228Z,157.83
2022-11-13T01:47:39.519Z,158.70
2022-11-13T01:50:27.648Z,158.97
2022-11-13T01:53:13.896Z,157.83
2022-11-13T01:56:00.533Z,158.60
2022-11-13T01:58:52.240Z,157.73
2022-11-13T02:01:39.096Z,157.67
2022-11-13T02:04:26.513Z,158.77
2022-11-13T02:07:15.925Z,158.00
2022-11-13T02:10:02.453Z,157.90
2022-11-13T02:12:52.479Z,159.40
2022-11-13T02:15:39.879Z,157.70
2022-11-13T02:18:29.347Z,158.37
2022-11-13T02:21:28.094Z,158.50
2022-11-13T02:24:25.618Z,158.53
2022-11-13T02:27:16.841Z,157.57
2022-11-13T02:30:16.075Z,157.30
2022-11-13T02:33:03.367Z,157.33
2022-11-13T02:35:49.930Z,157.73
2022-11-13T02:38:37.525Z,157.77
2022-11-13T02:41:25.286Z,158.87
2022-11-13T02:44:11.814Z,157.53
2022-11-13T02:46:58.190Z,158.53
2022-11-13T02:49:44.584Z,159.93
2022-11-13T02:52:31.693Z,158.97
2022-11-13T02:55:18.750Z,158.53
2022-11-13T02:58:06.635Z,159.37
2022-11-13T03:00:52.904Z,159.23
2022-11-13T03:06:46.063Z,158.90
2022-11-13T03:09:32.379Z,159.03
2022-11-13T03:12:18.767Z,159.90
2022-11-13T03:15:08.539Z,157.50
2022-11-13T03:17:55.110Z,158.20
2022-11-13T03:20:43.372Z,158.60
2022-11-13T03:23:29.913Z,158.40
2022-11-13T03:26:17.717Z,157.83
2022-11-13T03:29:03.915Z,157.57
2022-11-13T03:31:51.507Z,158.43
2022-11-13T03:34:38.556Z,157.97
2022-11-13T03:37:25.144Z,157.57
2022-11-13T03:40:12.433Z,157.47
2022-11-13T03:42:58.634Z,157.67
2022-11-13T03:45:46.013Z,158.03
2022-11-13T03:48:33.707Z,158.07
2022-11-13T03:51:20.074Z,158.23
2022-11-13T03:54:06.790Z,157.47
2022-11-13T03:56:53.009Z,157.93
2022-11-13T03:59:39.578Z,157.73
2022-11-13T04:02:26.107Z,158.07
2022-11-13T04:05:17.436Z,158.27
2022-11-13T04:08:06.791Z,157.53
2022-11-13T04:10:53.027Z,157.50
2022-11-13T04:13:39.674Z,156.83
2022-11-13T04:16:26.377Z,156.80
2022-11-13T04:19:12.646Z,156.93
2022-11-13T04:22:00.470Z,156.20
2022-11-13T04:24:46.871Z,156.80
2022-11-13T04:27:33.317Z,156.20
2022-11-13T04:30:20.406Z,156.47
2022-11-13T04:33:06.962Z,156.37
2022-11-13T04:35:53.427Z,156.03
2022-11-13T04:38:41.031Z,156.37
2022-11-13T04:41:44.950Z,156.77
2022-11-13T04:44:31.343Z,156.20
2022-11-13T04:47:17.738Z,156.27
2022-11-13T04:50:04.435Z,156.43
2022-11-13T04:52:50.720Z,156.03
2022-11-13T04:55:38.173Z,156.13
2022-11-13T04:58:24.334Z,155.50
2022-11-13T05:01:10.824Z,155.90
2022-11-13T05:03:56.930Z,156.20
2022-11-13T05:06:43.360Z,156.13
2022-11-13T05:09:29.559Z,155.60
2022-11-13T05:12:17.095Z,155.80
2022-11-13T05:15:03.745Z,155.70
2022-11-13T05:17:50.154Z,156.23
2022-11-13T05:20:36.434Z,156.30
2022-11-13T05:23:22.669Z,156.20
2022-11-13T05:26:11.304Z,156.27
2022-11-13T05:28:59.926Z,155.27
2022-11-13T05:31:46.635Z,154.67
2022-11-13T05:34:33.736Z,155.77
2022-11-13T05:37:19.927Z,156.17
2022-11-13T05:40:07.421Z,155.63
2022-11-13T05:42:54.414Z,155.40
2022-11-13T05:45:42.015Z,155.93
2022-11-13T05:48:28.936Z,155.67
2022-11-13T05:51:16.982Z,155.47
2022-11-13T05:54:03.421Z,156.73
2022-11-13T05:56:49.588Z,156.10
2022-11-13T05:59:36.133Z,156.07
2022-11-13T06:02:23.889Z,155.33
2022-11-13T06:05:10.274Z,155.47
2022-11-13T06:07:56.854Z,157.07
2022-11-13T06:10:43.286Z,155.90
2022-11-13T06:13:30.442Z,157.27
2022-11-13T06:16:19.185Z,156.80
2022-11-13T06:19:09.776Z,157.10
2022-11-13T06:21:56.203Z,156.23
2022-11-13T06:24:42.618Z,155.87
2022-11-13T06:27:28.999Z,155.60
2022-11-13T06:30:15.814Z,155.73
2022-11-13T06:33:02.351Z,155.33
2022-11-13T06:35:49.872Z,155.30
2022-11-13T06:38:38.068Z,154.07
2022-11-13T06:41:25.967Z,155.03
2022-11-13T06:44:12.216Z,154.80
2022-11-13T06:46:58.612Z,155.13
2022-11-13T06:49:44.871Z,154.53
2022-11-13T06:52:32.728Z,155.70
2022-11-13T06:55:18.720Z,155.37
2022-11-13T06:58:04.971Z,156.47
2022-11-13T07:00:52.031Z,155.97
2022-11-13T07:03:38.412Z,155.67
2022-11-13T07:06:25.747Z,156.20
2022-11-13T07:09:13.542Z,154.83
2022-11-13T07:11:59.989Z,155.73
2022-11-13T07:14:46.177Z,155.27
2022-11-13T07:17:32.366Z,155.23
2022-11-13T07:20:18.872Z,155.10
2022-11-13T07:23:06.583Z,155.07
2022-11-13T07:25:55.967Z,155.53
2022-11-13T07:28:42.411Z,154.50
2022-11-13T07:31:28.665Z,154.13
2022-11-13T07:34:15.203Z,155.10
2022-11-13T07:37:01.549Z,155.07
2022-11-13T07:39:47.959Z,154.87
2022-11-13T07:42:35.955Z,155.27
2022-11-13T07:45:22.571Z,155.30
2022-11-13T07:48:09.153Z,155.30
2022-11-13T07:50:55.482Z,155.30
2022-11-13T07:53:42.083Z,155.40
2022-11-13T07:56:28.613Z,154.93
2022-11-13T07:59:16.151Z,154.93
2022-11-13T08:02:02.920Z,155.03
2022-11-13T08:04:49.245Z,155.37
2022-11-13T08:07:35.645Z,155.27
2022-11-13T08:10:22.851Z,154.90
2022-11-13T08:13:11.588Z,154.90
2022-11-13T08:16:01.421Z,154.80
2022-11-13T08:18:47.894Z,156.13
2022-11-13T08:21:35.680Z,156.00
2022-11-13T08:24:22.088Z,155.47
2022-11-13T08:27:08.562Z,156.27
2022-11-13T08:29:55.141Z,155.23
2022-11-13T08:32:42.877Z,155.40
2022-11-13T08:35:29.716Z,156.03
2022-11-13T08:38:15.975Z,157.93
2022-11-13T08:41:08.859Z,158.10
2022-11-13T08:43:55.700Z,159.60
2022-11-13T08:46:42.144Z,159.03
2022-11-13T08:49:30.076Z,158.50
2022-11-13T08:52:16.398Z,158.17
2022-11-13T08:55:02.612Z,159.40
2022-11-13T08:57:48.906Z,159.03
2022-11-13T09:00:35.401Z,158.70
2022-11-13T09:03:21.883Z,159.77
2022-11-13T09:06:10.583Z,160.10
2022-11-13T09:08:56.943Z,158.60
2022-11-13T09:11:43.390Z,158.13
2022-11-13T09:14:30.511Z,158.33
2022-11-13T09:17:17.779Z,159.47
2022-11-13T09:20:08.803Z,160.00
2022-11-13T09:23:01.486Z,159.90
2022-11-13T09:25:47.865Z,158.67
2022-11-13T09:28:34.567Z,158.87
2022-11-13T09:31:20.809Z,159.57
2022-11-13T09:34:07.562Z,159.23
2022-11-13T09:36:54.480Z,160.40
2022-11-13T09:39:42.184Z,158.97
2022-11-13T09:42:32.063Z,159.30
2022-11-13T09:45:18.486Z,158.13
2022-11-13T09:48:14.054Z,159.83
2022-11-13T09:51:04.873Z,158.80
2022-11-13T09:53:51.461Z,159.43
2022-11-13T09:56:43.366Z,158.17
2022-11-13T09:59:36.199Z,158.30
2022-11-13T10:02:28.945Z,158.50
2022-11-13T10:05:23.592Z,158.63
2022-11-13T10:08:15.036Z,159.70
2022-11-13T10:11:10.158Z,158.60
2022-11-13T10:14:02.537Z,158.90
2022-11-13T10:16:52.954Z,159.57
2022-11-13T10:19:44.013Z,159.17
2022-11-13T10:22:36.759Z,158.77
2022-11-13T10:25:26.643Z,158.73
2022-11-13T10:28:43.696Z,158.17
2022-11-13T10:31:24.547Z,159.30
2022-11-13T10:34:12.770Z,159.00
2022-11-13T10:37:14.205Z,160.23
2022-11-13T10:40:00.649Z,160.23
2022-11-13T10:42:47.171Z,162.37
2022-11-13T10:45:33.898Z,161.53
2022-11-13T10:48:23.038Z,162.40
2022-11-13T10:51:23.379Z,161.17
2022-11-13T10:54:22.994Z,160.87
2022-11-13T10:57:25.843Z,161.47
2022-11-13T11:00:25.195Z,161.40
2022-11-13T11:03:16.027Z,161.27
2022-11-13T11:06:05.430Z,162.47
2022-11-13T11:08:51.654Z,162.20
2022-11-13T11:11:55.583Z,161.37
2022-11-13T11:14:46.056Z,160.97
2022-11-13T11:17:41.860Z,161.27
2022-11-13T11:20:42.231Z,160.43
2022-11-13T11:23:38.381Z,161.27
2022-11-13T11:26:29.946Z,161.97
2022-11-13T11:29:22.376Z,162.20
2022-11-13T11:32:17.699Z,160.90
2022-11-13T11:35:12.318Z,162.20
2022-11-13T11:38:06.247Z,162.60
2022-11-13T11:41:00.243Z,162.00
2022-11-13T11:43:52.143Z,161.17
2022-11-13T11:46:41.610Z,160.93
2022-11-13T11:49:32.025Z,161.67
2022-11-13T11:52:43.234Z,160.77
2022-11-13T11:55:57.175Z,161.50
2022-11-13T11:59:02.172Z,161.83
2022-11-13T12:02:01.540Z,162.20
2022-11-13T12:05:01.666Z,162.20
2022-11-13T12:07:58.744Z,161.70
2022-11-13T12:10:51.329Z,162.57
2022-11-13T12:13:44.936Z,162.27
2022-11-13T12:16:42.495Z,161.60
2022-11-13T12:19:38.758Z,161.67
2022-11-13T12:22:31.158Z,161.53
2022-11-13T12:25:25.413Z,162.50
2022-11-13T12:28:18.557Z,163.07
2022-11-13T12:31:12.503Z,163.00
2022-11-13T12:34:08.433Z,161.90
2022-11-13T12:36:55.893Z,161.53
2022-11-13T12:39:50.254Z,163.07
2022-11-13T12:42:43.796Z,162.60
2022-11-13T12:45:45.376Z,162.20
2022-11-13T12:48:36.039Z,162.33
2022-11-13T12:51:24.141Z,163.00
2022-11-13T12:54:11.367Z,163.13
2022-11-13T12:57:24.427Z,163.33
2022-11-13T13:00:25.416Z,163.03
2022-11-13T13:03:41.331Z,163.90
2022-11-13T13:06:47.173Z,162.67
2022-11-13T13:09:48.135Z,163.43
2022-11-13T13:12:47.147Z,162.57
2022-11-13T13:15:37.168Z,163.43
2022-11-13T13:18:30.104Z,162.30
2022-11-13T13:21:18.830Z,162.57
2022-11-13T13:24:27.731Z,161.60
2022-11-13T13:27:25.609Z,161.73
2022-11-13T13:30:20.985Z,161.97
2022-11-13T13:33:21.080Z,163.63
2022-11-13T13:36:19.547Z,162.10
2022-11-13T13:39:25.003Z,162.10
2022-11-13T13:42:23.127Z,162.87
2022-11-13T13:45:25.300Z,162.63
2022-11-13T13:48:14.394Z,162.10
2022-11-13T13:51:02.865Z,162.33
2022-11-13T13:53:50.162Z,164.93
2022-11-13T13:56:42.018Z,165.83
2022-11-13T13:59:34.113Z,164.23
2022-11-13T14:02:22.978Z,161.53
2022-11-13T14:05:25.608Z,160.90
2022-11-13T14:08:18.497Z,161.67
2022-11-13T14:11:16.678Z,162.47
2022-11-13T14:14:10.431Z,164.17
2022-11-13T14:16:58.582Z,164.07
2022-11-13T14:19:50.477Z,163.67
2022-11-13T14:22:37.023Z,162.80
2022-11-13T14:25:25.653Z,162.33
2022-11-13T14:28:16.991Z,163.40
2022-11-13T14:31:07.641Z,163.60
2022-11-13T14:33:54.283Z,163.73
2022-11-13T14:36:41.187Z,163.10
2022-11-13T14:39:29.901Z,161.57
2022-11-13T14:42:20.347Z,161.03
2022-11-13T14:45:14.830Z,161.40
2022-11-13T14:48:05.219Z,161.70
2022-11-13T14:50:53.458Z,161.90
2022-11-13T14:53:42.256Z,160.37
2022-11-13T14:56:36.698Z,160.80
2022-11-13T14:59:27.081Z,160.63
2022-11-13T15:02:14.066Z,160.53
2022-11-13T15:05:01.943Z,160.83
2022-11-13T15:07:48.794Z,161.00
2022-11-13T15:10:35.366Z,160.53
2022-11-13T15:13:21.935Z,160.77
2022-11-13T15:16:13.723Z,160.67
2022-11-13T15:19:03.390Z,159.20
2022-11-13T15:22:20.485Z,160.00
2022-11-13T15:24:57.807Z,160.80
2022-11-13T15:27:43.902Z,163.37
2022-11-13T15:30:30.361Z,162.33
2022-11-13T15:33:17.484Z,162.67
2022-11-13T15:36:04.132Z,163.33
2022-11-13T15:38:51.807Z,163.03
2022-11-13T15:41:38.332Z,163.87
2022-11-13T15:44:24.719Z,162.43
2022-11-13T15:47:26.390Z,162.87
2022-11-13T15:50:14.859Z,160.80
2022-11-13T15:53:05.520Z,161.63
2022-11-13T15:55:53.723Z,161.40
2022-11-13T15:58:40.016Z,162.80
2022-11-13T16:01:26.556Z,161.20
2022-11-13T16:04:14.718Z,161.83
2022-11-13T16:07:01.064Z,161.57
2022-11-13T16:09:47.271Z,162.70
2022-11-13T16:12:35.781Z,162.10
2022-11-13T16:15:22.435Z,162.10
2022-11-13T16:18:20.996Z,161.87
2022-11-13T16:21:07.791Z,161.10
2022-11-13T16:23:54.005Z,160.77
2022-11-13T16:26:42.209Z,161.77
2022-11-13T16:29:30.823Z,162.17
2022-11-13T16:32:18.092Z,161.13
2022-11-13T16:35:04.707Z,161.07
2022-11-13T16:37:50.936Z,160.93
2022-11-13T16:40:37.348Z,161.17
2022-11-13T16:43:24.172Z,160.00
2022-11-13T16:46:21.184Z,161.60
2022-11-13T16:49:11.835Z,161.10
2022-11-13T16:51:58.515Z,160.43
2022-11-13T16:54:45.144Z,159.70
2022-11-13T16:57:31.540Z,161.07
2022-11-13T17:00:20.315Z,161.33
2022-11-13T17:03:07.895Z,161.30
2022-11-13T17:05:54.317Z,161.30
2022-11-13T17:08:40.684Z,161.03
2022-11-13T17:11:28.894Z,161.30
2022-11-13T17:14:15.290Z,160.83
2022-11-13T17:17:01.915Z,160.77
2022-11-13T17:19:49.741Z,160.77
2022-11-13T17:22:35.859Z,160.10
2022-11-13T17:25:26.229Z,159.33
2022-11-13T17:28:12.861Z,159.23
2022-11-13T17:31:03.420Z,159.83
2022-11-13T17:33:52.584Z,158.40
2022-11-13T17:36:40.299Z,158.40
2022-11-13T17:39:26.847Z,158.00
2022-11-13T17:42:13.153Z,157.47
2022-11-13T17:44:59.345Z,157.33
2022-11-13T17:47:45.627Z,158.27
2022-11-13T17:50:32.231Z,157.53
2022-11-13T17:53:19.914Z,157.23
2022-11-13T17:56:08.286Z,157.57
2022-11-13T17:58:54.525Z,157.10
2022-11-13T18:01:41.124Z,157.67
2022-11-13T18:04:27.519Z,157.03
2022-11-13T18:07:13.802Z,157.50
2022-11-13T18:10:01.478Z,156.97
2022-11-13T18:12:48.310Z,157.17
2022-11-13T18:15:36.170Z,156.07
2022-11-13T18:18:22.581Z,156.23
2022-11-13T18:21:23.697Z,156.53
2022-11-13T18:24:14.310Z,156.57
2022-11-13T18:27:02.123Z,156.60
2022-11-13T18:29:48.297Z,156.57
2022-11-13T18:32:34.733Z,156.47
2022-11-13T18:35:21.205Z,156.57
2022-11-13T18:38:07.666Z,156.30
2022-11-13T18:41:01.624Z,156.30
2022-11-13T18:43:50.816Z,156.67
2022-11-13T18:46:37.294Z,156.10
2022-11-13T18:49:23.645Z,156.97
2022-11-13T18:52:10.098Z,156.27
2022-11-13T18:54:56.357Z,156.00
2022-11-13T18:57:42.895Z,156.03
2022-11-13T19:00:30.663Z,156.27
2022-11-13T19:03:17.203Z,155.77
2022-11-13T19:06:06.381Z,155.97
2022-11-13T19:08:56.840Z,155.67
2022-11-13T19:11:44.150Z,156.27
2022-11-13T19:14:30.733Z,155.97
2022-11-13T19:17:18.770Z,155.80
2022-11-13T19:20:05.791Z,155.90
2022-11-13T19:22:52.039Z,156.43
2022-11-13T19:25:38.419Z,157.23
2022-11-13T19:28:24.760Z,157.50
2022-11-13T19:31:13.886Z,158.17
2022-11-13T19:34:05.798Z,157.33
2022-11-13T19:36:52.991Z,157.50
2022-11-13T19:39:39.250Z,157.80
2022-11-13T19:42:25.435Z,158.30
2022-11-13T19:45:12.218Z,157.50
2022-11-13T19:47:58.640Z,157.77
2022-11-13T19:50:47.303Z,157.30
2022-11-13T19:53:33.884Z,157.20
2022-11-13T19:56:21.806Z,159.27
2022-11-13T19:59:11.016Z,158.40
2022-11-13T20:01:57.208Z,158.50
2022-11-13T20:04:43.432Z,158.73
2022-11-13T20:07:31.293Z,157.67
2022-11-13T20:10:18.015Z,158.23
2022-11-13T20:13:04.607Z,158.00
2022-11-13T20:15:54.299Z,157.70
2022-11-13T20:18:42.212Z,157.17
2022-11-13T20:21:31.322Z,157.03
2022-11-13T20:24:18.914Z,158.00
2022-11-13T20:27:05.413Z,156.87
2022-11-13T20:29:51.944Z,156.97
2022-11-13T20:32:38.665Z,157.10
2022-11-13T20:35:25.291Z,157.67
2022-11-13T20:38:11.972Z,157.80
2022-11-13T20:40:59.523Z,158.30
2022-11-13T20:43:45.703Z,158.83
2022-11-13T20:46:31.933Z,158.50
2022-11-13T20:49:18.116Z,160.20
2022-11-13T20:52:06.919Z,158.63
2022-11-13T20:54:53.303Z,158.97
2022-11-13T20:57:41.327Z,159.00
2022-11-13T21:00:28.001Z,159.10
2022-11-13T21:03:14.503Z,158.23
2022-11-13T21:06:01.094Z,159.03
2022-11-13T21:08:48.388Z,156.97
2022-11-13T21:11:34.787Z,158.83
2022-11-13T21:14:22.456Z,158.00
2022-11-13T21:17:09.028Z,157.47
2022-11-13T21:19:57.693Z,158.30
2022-11-13T21:22:44.409Z,158.20
2022-11-13T21:25:31.283Z,158.90
2022-11-13T21:28:23.392Z,158.93
2022-11-13T21:31:15.231Z,158.97
2022-11-13T21:34:01.407Z,157.50
2022-11-13T21:36:47.983Z,158.17
2022-11-13T21:39:34.525Z,156.37
2022-11-13T21:42:20.747Z,156.77
2022-11-13T21:45:07.909Z,155.97
2022-11-13T21:47:55.773Z,157.07
2022-11-13T21:50:42.020Z,157.43
2022-11-13T21:53:28.322Z,158.90
2022-11-13T21:56:15.950Z,158.83
2022-11-13T21:59:02.850Z,157.70
2022-11-13T22:01:49.624Z,156.07
2022-11-13T22:04:37.170Z,156.50
2022-11-13T22:07:23.726Z,156.43
2022-11-13T22:10:10.337Z,156.23
2022-11-13T22:12:56.507Z,155.37
2022-11-13T22:15:42.874Z,156.03
2022-11-13T22:18:29.605Z,156.27
2022-11-13T22:21:17.874Z,155.80
2022-11-13T22:24:04.950Z,156.30
2022-11-13T22:26:51.148Z,156.53
2022-11-13T22:29:37.556Z,155.93
2022-11-13T22:32:24.042Z,156.50
2022-11-13T22:35:10.729Z,156.87
2022-11-13T22:37:58.295Z,156.57
2022-11-13T22:40:44.913Z,156.83
2022-11-13T22:43:36.011Z,156.30
2022-11-13T22:46:24.267Z,156.23
2022-11-13T22:49:12.616Z,156.03
2022-11-13T22:51:58.973Z,155.43
2022-11-13T22:54:46.643Z,156.30
2022-11-13T22:57:33.324Z,155.90
2022-11-13T23:00:19.491Z,156.17
2022-11-13T23:03:05.721Z,155.40
2022-11-13T23:05:52.169Z,155.13
2022-11-13T23:08:40.135Z,155.47
2022-11-13T23:11:30.117Z,155.03
2022-11-13T23:14:16.948Z,155.80
2022-11-13T23:17:03.511Z,155.40
2022-11-13T23:19:49.711Z,155.83
2022-11-13T23:22:35.954Z,156.33
2022-11-13T23:25:21.980Z,156.43
2022-11-13T23:28:09.575Z,156.73
2022-11-13T23:30:55.922Z,156.70
2022-11-13T23:33:42.679Z,157.33
2022-11-13T23:36:30.469Z,157.70
2022-11-13T23:39:16.945Z,157.63
2022-11-13T23:42:03.187Z,157.27
2022-11-13T23:44:51.019Z,157.90
2022-11-13T23:47:37.211Z,157.63
2022-11-13T23:50:23.611Z,157.43
2022-11-13T23:53:10.365Z,157.53
2022-11-13T23:55:56.839Z,158.13
2022-11-13T23:58:43.306Z,157.20
